createdAt,value
2018-05-21T00:01:47.661Z,102726.12
2018-05-21T00:04:15.726Z,102724.36
2018-05-21T00:06:43.902Z,102726.56
2018-05-21T00:09:11.763Z,102727.44
2018-05-21T00:11:39.939Z,102732.28
2018-05-21T00:14:08.089Z,102735.73
2018-05-21T00:16:36.079Z,102743.33
2018-05-21T00:19:04.152Z,102740.74
2018-05-21T00:21:32.602Z,102717.17
2018-05-21T00:24:00.712Z,102738.91
2018-05-21T00:26:28.536Z,102735.45
2018-05-21T00:28:56.797Z,102730.59
2018-05-21T00:31:24.711Z,102737.70
2018-05-21T00:33:52.546Z,102729.72
2018-05-21T00:36:20.854Z,102731.05
2018-05-21T00:38:48.670Z,102736.34
2018-05-21T00:41:16.484Z,102732.73
2018-05-21T00:43:44.562Z,102728.72
2018-05-21T00:46:12.458Z,102731.33
2018-05-21T00:48:40.555Z,102737.92
2018-05-21T00:51:08.879Z,102727.19
2018-05-21T00:53:36.720Z,102737.00
2018-05-21T00:56:04.607Z,102733.48
2018-05-21T00:58:32.682Z,102742.27
2018-05-21T01:01:00.747Z,102741.83
2018-05-21T01:03:28.601Z,102737.38
2018-05-21T01:05:56.997Z,102738.25
2018-05-21T01:08:25.067Z,102737.83
2018-05-21T01:10:52.934Z,102739.59
2018-05-21T01:13:20.900Z,102741.34
2018-05-21T01:15:49.084Z,102740.03
2018-05-21T01:18:17.115Z,102740.87
2018-05-21T01:20:45.554Z,102739.97
2018-05-21T01:23:13.646Z,102741.30
2018-05-21T01:25:41.460Z,102733.28
2018-05-21T01:28:09.532Z,102736.76
2018-05-21T01:30:38.221Z,102729.58
2018-05-21T01:33:06.079Z,102743.32
2018-05-21T01:35:34.154Z,102730.12
2018-05-21T01:38:02.223Z,102727.54
2018-05-21T01:40:30.248Z,102737.69
2018-05-21T01:42:58.574Z,102738.50
2018-05-21T01:45:26.437Z,102738.91
2018-05-21T01:47:54.615Z,102737.61
2018-05-21T01:50:22.893Z,102721.13
2018-05-21T01:52:50.756Z,102734.84
2018-05-21T01:55:18.724Z,102740.02
2018-05-21T01:57:46.793Z,102745.75
2018-05-21T02:00:14.558Z,102738.63
2018-05-21T02:02:42.633Z,102745.59
2018-05-21T02:05:11.219Z,102737.63
2018-05-21T02:07:39.185Z,102738.52
2018-05-21T02:10:07.369Z,102725.66
2018-05-21T02:12:35.866Z,102743.03
2018-05-21T02:15:03.812Z,102741.31
2018-05-21T02:17:31.680Z,102733.79
2018-05-21T02:20:00.379Z,102742.66
2018-05-21T02:22:28.233Z,102720.48
2018-05-21T02:24:56.089Z,102739.63
2018-05-21T02:27:24.300Z,102740.08
2018-05-21T02:29:52.136Z,102699.28
2018-05-21T02:32:19.945Z,102735.26
2018-05-21T02:34:48.225Z,102744.56
2018-05-21T02:37:16.041Z,102730.78
2018-05-21T02:39:43.800Z,102735.56
2018-05-21T02:42:12.433Z,102731.20
2018-05-21T02:44:40.479Z,102734.25
2018-05-21T02:47:08.330Z,102734.22
2018-05-21T02:49:36.471Z,102733.81
2018-05-21T02:52:10.658Z,102736.45
2018-05-21T02:54:38.699Z,102741.80
2018-05-21T02:57:06.725Z,102740.82
2018-05-21T02:59:34.617Z,102731.04
2018-05-21T03:02:02.675Z,102740.27
2018-05-21T03:04:30.768Z,102727.45
2018-05-21T03:06:58.658Z,102737.70
2018-05-21T03:09:26.834Z,102738.60
2018-05-21T03:11:54.898Z,102740.41
2018-05-21T03:14:22.735Z,102738.09
2018-05-21T03:16:50.660Z,102736.71
2018-05-21T03:19:18.718Z,102737.59
2018-05-21T03:21:46.643Z,102741.60
2018-05-21T03:24:14.916Z,102744.66
2018-05-21T03:26:44.015Z,102732.20
2018-05-21T03:29:11.881Z,102746.47
2018-05-21T03:31:40.257Z,102751.38
2018-05-21T03:34:08.326Z,102750.47
2018-05-21T03:36:36.187Z,102757.09
2018-05-21T03:39:04.298Z,102754.03
2018-05-21T03:41:32.444Z,102753.56
2018-05-21T03:44:00.407Z,102730.42
2018-05-21T03:46:28.535Z,102758.91
2018-05-21T03:48:56.552Z,102765.14
2018-05-21T03:51:24.414Z,102766.53
2018-05-21T03:53:52.788Z,102747.47
2018-05-21T03:56:20.996Z,102768.33
2018-05-21T03:59:01.232Z,102763.86
2018-05-21T04:01:40.970Z,102760.30
2018-05-21T04:04:09.349Z,102759.88
2018-05-21T04:06:37.214Z,102761.17
2018-05-21T04:09:05.698Z,102759.86
2018-05-21T04:11:33.886Z,102759.45
2018-05-21T04:14:01.707Z,102763.49
2018-05-21T04:16:30.424Z,102763.04
2018-05-21T04:18:58.747Z,102761.25
2018-05-21T04:21:26.624Z,102762.13
2018-05-21T04:23:54.430Z,102769.19
2018-05-21T04:26:22.808Z,102763.53
2018-05-21T04:28:50.680Z,102767.54
2018-05-21T04:31:18.547Z,102770.70
2018-05-21T04:33:46.736Z,102776.86
2018-05-21T04:36:14.587Z,102773.72
2018-05-21T04:38:42.455Z,102765.31
2018-05-21T04:41:10.657Z,102777.79
2018-05-21T04:43:38.798Z,102773.38
2018-05-21T04:46:06.530Z,102781.67
2018-05-21T04:48:34.997Z,102782.05
2018-05-21T04:51:03.011Z,102785.22
2018-05-21T04:53:30.881Z,102783.09
2018-05-21T04:55:59.958Z,102784.47
2018-05-21T04:58:27.664Z,102783.53
2018-05-21T05:00:55.498Z,102779.92
2018-05-21T05:03:24.135Z,102778.20
2018-05-21T05:05:51.996Z,102782.16
2018-05-21T05:08:19.924Z,102783.51
2018-05-21T05:10:48.320Z,102777.34
2018-05-21T05:13:16.617Z,102773.04
2018-05-21T05:15:44.446Z,102780.14
2018-05-21T05:18:12.561Z,102782.37
2018-05-21T05:20:40.476Z,102784.61
2018-05-21T05:23:08.337Z,102780.32
2018-05-21T05:25:36.653Z,102775.54
2018-05-21T05:28:04.394Z,102780.86
2018-05-21T05:30:32.256Z,102777.42
2018-05-21T05:33:00.443Z,102771.30
2018-05-21T05:35:28.819Z,102780.15
2018-05-21T05:37:56.685Z,102767.81
2018-05-21T05:40:24.945Z,102763.00
2018-05-21T05:42:52.964Z,102756.84
2018-05-21T05:45:20.654Z,102761.73
2018-05-21T05:47:49.364Z,102755.56
2018-05-21T05:50:17.639Z,102759.06
2018-05-21T05:52:45.605Z,102755.12
2018-05-21T05:55:13.783Z,102756.47
2018-05-21T05:57:42.263Z,102754.26
2018-05-21T06:00:10.130Z,102744.11
2018-05-21T06:02:38.104Z,102757.41
2018-05-21T06:05:06.167Z,102756.09
2018-05-21T06:07:34.037Z,102757.95
2018-05-21T06:10:02.077Z,102735.80
2018-05-21T06:12:30.114Z,102755.34
2018-05-21T06:14:57.940Z,102755.80
2018-05-21T06:17:25.955Z,102761.13
2018-05-21T06:19:54.088Z,102757.16
2018-05-21T06:22:22.158Z,102758.92
2018-05-21T06:24:50.535Z,102759.84
2018-05-21T06:27:18.248Z,102758.06
2018-05-21T06:29:46.298Z,102750.53
2018-05-21T06:32:15.098Z,102758.08
2018-05-21T06:34:42.934Z,102762.08
2018-05-21T06:37:11.630Z,102773.16
2018-05-21T06:39:39.516Z,102756.77
2018-05-21T06:42:07.256Z,102763.85
2018-05-21T06:44:35.340Z,102760.32
2018-05-21T06:47:03.405Z,102737.70
2018-05-21T06:49:31.349Z,102754.55
2018-05-21T06:51:59.564Z,102749.22
2018-05-21T06:54:28.063Z,102759.02
2018-05-21T06:56:55.868Z,102755.45
2018-05-21T06:59:23.939Z,102759.90
2018-05-21T07:01:52.358Z,102756.77
2018-05-21T07:04:20.186Z,102762.09
2018-05-21T07:06:48.180Z,102733.25
2018-05-21T07:09:16.421Z,102751.00
2018-05-21T07:11:44.710Z,102750.95
2018-05-21T07:14:12.501Z,102745.63
2018-05-21T07:16:41.162Z,102754.50
2018-05-21T07:19:09.261Z,102758.48
2018-05-21T07:21:37.064Z,102757.98
2018-05-21T07:24:05.169Z,102733.17
2018-05-21T07:26:33.543Z,102733.58
2018-05-21T07:29:01.507Z,102750.83
2018-05-21T07:31:29.787Z,102753.91
2018-05-21T07:33:57.866Z,102757.02
2018-05-21T07:36:25.824Z,102734.78
2018-05-21T07:38:53.990Z,102747.11
2018-05-21T07:41:21.823Z,102743.92
2018-05-21T07:43:50.348Z,102738.98
2018-05-21T07:46:18.523Z,102740.11
2018-05-21T07:48:46.341Z,102736.78
2018-05-21T07:51:14.858Z,102740.77
2018-05-21T07:53:43.377Z,102739.92
2018-05-21T07:56:11.628Z,102730.83
2018-05-21T07:58:40.002Z,102725.06
2018-05-21T08:01:08.590Z,102720.93
2018-05-21T08:03:36.628Z,102726.73
2018-05-21T08:06:04.727Z,102727.23
2018-05-21T08:08:32.949Z,102725.37
2018-05-21T08:11:00.990Z,102726.14
2018-05-21T08:13:28.960Z,102725.02
2018-05-21T08:15:57.630Z,102723.67
2018-05-21T08:18:25.595Z,102728.39
2018-05-21T08:20:53.369Z,102715.94
2018-05-21T08:23:21.748Z,102712.98
2018-05-21T08:25:49.445Z,102718.88
2018-05-21T08:28:17.158Z,102718.13
2018-05-21T08:30:45.790Z,102710.86
2018-05-21T08:33:13.535Z,102713.55
2018-05-21T08:35:41.381Z,102708.78
2018-05-21T08:38:09.642Z,102709.95
2018-05-21T08:40:37.419Z,102711.99
2018-05-21T08:43:05.282Z,102705.55
2018-05-21T08:45:33.594Z,102706.25
2018-05-21T08:48:01.516Z,102694.48
2018-05-21T08:50:29.395Z,102706.95
2018-05-21T08:52:57.671Z,102694.63
2018-05-21T08:55:25.912Z,102698.36
2018-05-21T08:57:53.742Z,102691.48
2018-05-21T09:00:22.403Z,102686.13
2018-05-21T09:02:51.163Z,102684.36
2018-05-21T09:05:19.032Z,102686.20
2018-05-21T09:07:46.985Z,102687.66
2018-05-21T09:10:14.981Z,102683.55
2018-05-21T09:12:42.904Z,102673.89
2018-05-21T09:15:10.883Z,102673.68
2018-05-21T09:17:39.104Z,102664.39
2018-05-21T09:20:07.360Z,102663.94
2018-05-21T09:22:35.425Z,102654.84
2018-05-21T09:25:03.289Z,102659.21
2018-05-21T09:27:31.411Z,102658.61
2018-05-21T09:29:59.294Z,102656.83
2018-05-21T09:32:27.180Z,102661.08
2018-05-21T09:34:55.189Z,102656.98
2018-05-21T09:37:23.321Z,102652.97
2018-05-21T09:39:51.027Z,102642.48
2018-05-21T09:42:18.993Z,102655.85
2018-05-21T09:44:46.882Z,102646.10
2018-05-21T09:47:15.039Z,102643.34
2018-05-21T09:49:43.057Z,102644.17
2018-05-21T09:52:11.106Z,102643.58
2018-05-21T09:54:38.831Z,102639.84
2018-05-21T09:57:07.200Z,102642.03
2018-05-21T09:59:35.287Z,102636.94
2018-05-21T10:02:03.067Z,102632.53
2018-05-21T10:04:31.976Z,102625.30
2018-05-21T10:07:00.010Z,102630.44
2018-05-21T10:09:27.889Z,102625.46
2018-05-21T10:11:56.187Z,102614.25
2018-05-21T10:14:24.259Z,102621.52
2018-05-21T10:16:52.200Z,102613.72
2018-05-21T10:19:20.311Z,102612.31
2018-05-21T10:21:48.538Z,102608.81
2018-05-21T10:24:16.727Z,102603.73
2018-05-21T10:26:44.475Z,102602.01
2018-05-21T10:29:12.418Z,102611.36
2018-05-21T10:31:40.613Z,102608.11
2018-05-21T10:34:08.334Z,102604.02
2018-05-21T10:36:36.435Z,102593.77
2018-05-21T10:39:04.681Z,102596.70
2018-05-21T10:41:32.772Z,102596.78
2018-05-21T10:44:00.692Z,102593.33
2018-05-21T10:46:28.407Z,102591.63
2018-05-21T10:48:56.430Z,102584.84
2018-05-21T10:51:24.556Z,102586.84
2018-05-21T10:53:52.270Z,102580.88
2018-05-21T10:56:20.453Z,102548.31
2018-05-21T10:58:48.325Z,102586.10
2018-05-21T11:01:16.148Z,102581.78
2018-05-21T11:03:44.219Z,102582.06
2018-05-21T11:06:12.409Z,102579.23
2018-05-21T11:08:40.146Z,102579.28
2018-05-21T11:11:07.988Z,102580.19
2018-05-21T11:13:36.239Z,102574.00
2018-05-21T11:16:04.161Z,102573.92
2018-05-21T11:18:31.916Z,102576.30
2018-05-21T11:21:00.460Z,102575.20
2018-05-21T11:23:28.163Z,102572.58
2018-05-21T11:25:55.899Z,102570.34
2018-05-21T11:28:24.155Z,102571.61
2018-05-21T11:30:51.955Z,102568.34
2018-05-21T11:33:19.789Z,102563.98
2018-05-21T11:35:48.384Z,102568.11
2018-05-21T11:38:16.247Z,102572.95
2018-05-21T11:40:44.018Z,102574.45
2018-05-21T11:43:12.116Z,102573.80
2018-05-21T11:45:39.857Z,102551.45
2018-05-21T11:48:07.633Z,102553.75
2018-05-21T11:50:35.896Z,102559.81
2018-05-21T11:53:04.004Z,102552.88
2018-05-21T11:55:31.752Z,102553.83
2018-05-21T11:58:00.040Z,102546.50
2018-05-21T12:00:28.187Z,102550.58
2018-05-21T12:02:55.923Z,102556.59
2018-05-21T12:05:23.727Z,102554.29
2018-05-21T12:07:51.955Z,102550.09
2018-05-21T12:10:19.885Z,102535.48
2018-05-21T12:12:47.787Z,102554.22
2018-05-21T12:15:15.695Z,102555.44
2018-05-21T12:17:43.654Z,102554.43
2018-05-21T12:20:11.590Z,102552.08
2018-05-21T12:22:39.674Z,102544.92
2018-05-21T12:25:07.524Z,102547.11
2018-05-21T12:27:36.794Z,102548.53
2018-05-21T12:30:05.787Z,102557.90
2018-05-21T12:32:33.897Z,102545.86
2018-05-21T12:35:01.629Z,102546.78
2018-05-21T12:37:30.035Z,102542.80
2018-05-21T12:39:58.158Z,102549.22
2018-05-21T12:42:25.850Z,102548.14
2018-05-21T12:44:53.685Z,102553.30
2018-05-21T12:47:21.859Z,102527.25
2018-05-21T12:49:49.753Z,102534.64
2018-05-21T12:52:17.911Z,102535.59
2018-05-21T12:54:46.108Z,102535.49
2018-05-21T12:57:13.952Z,102528.33
2018-05-21T12:59:42.228Z,102527.42
2018-05-21T13:02:10.229Z,102526.83
2018-05-21T13:04:37.966Z,102532.33
2018-05-21T13:07:06.105Z,102518.98
2018-05-21T13:09:34.659Z,102515.65
2018-05-21T13:12:02.486Z,102519.54
2018-05-21T13:14:30.410Z,102520.62
2018-05-21T13:16:58.523Z,102515.13
2018-05-21T13:19:26.254Z,102511.63
2018-05-21T13:21:54.358Z,102511.14
2018-05-21T13:24:22.845Z,102514.27
2018-05-21T13:26:50.806Z,102506.84
2018-05-21T13:29:18.734Z,102499.12
2018-05-21T13:31:46.843Z,102488.38
2018-05-21T13:34:14.641Z,102502.66
2018-05-21T13:36:42.680Z,102502.30
2018-05-21T13:39:10.653Z,102497.13
2018-05-21T13:41:38.363Z,102495.45
2018-05-21T13:44:06.772Z,102497.36
2018-05-21T13:46:35.091Z,102493.55
2018-05-21T13:49:02.957Z,102492.41
2018-05-21T13:51:31.471Z,102495.98
2018-05-21T13:53:59.204Z,102498.16
2018-05-21T13:56:27.148Z,102493.89
2018-05-21T13:58:55.494Z,102481.00
2018-05-21T14:01:23.283Z,102488.51
2018-05-21T14:03:50.980Z,102480.19
2018-05-21T14:06:19.284Z,102477.96
2018-05-21T14:08:47.037Z,102475.04
2018-05-21T14:11:15.081Z,102465.57
2018-05-21T14:13:43.245Z,102463.27
2018-05-21T14:16:11.102Z,102467.43
2018-05-21T14:18:38.969Z,102463.73
2018-05-21T14:21:07.352Z,102457.78
2018-05-21T14:23:35.215Z,102454.60
2018-05-21T14:26:02.980Z,102462.19
2018-05-21T14:28:31.385Z,102460.08
2018-05-21T14:31:00.708Z,102459.12
2018-05-21T14:33:28.539Z,102455.31
2018-05-21T14:35:56.781Z,102455.57
2018-05-21T14:38:24.507Z,102450.63
2018-05-21T14:40:52.639Z,102438.18
2018-05-21T14:43:21.040Z,102438.58
2018-05-21T14:45:48.808Z,102428.64
2018-05-21T14:48:17.044Z,102435.67
2018-05-21T14:50:45.728Z,102428.98
2018-05-21T14:53:13.625Z,102433.55
2018-05-21T14:55:41.444Z,102435.49
2018-05-21T14:58:09.545Z,102429.36
2018-05-21T15:00:37.623Z,102427.26
2018-05-21T15:03:05.600Z,102431.59
2018-05-21T15:05:33.706Z,102424.38
2018-05-21T15:08:01.664Z,102426.91
2018-05-21T15:10:29.709Z,102422.65
2018-05-21T15:12:58.281Z,102419.50
2018-05-21T15:15:26.463Z,102423.48
2018-05-21T15:17:54.319Z,102418.54
2018-05-21T15:20:22.492Z,102417.61
2018-05-21T15:22:50.770Z,102407.66
2018-05-21T15:25:19.036Z,102409.06
2018-05-21T15:27:47.294Z,102400.30
2018-05-21T15:30:15.027Z,102403.50
2018-05-21T15:32:43.074Z,102409.56
2018-05-21T15:35:11.130Z,102407.02
2018-05-21T15:37:38.967Z,102408.11
2018-05-21T15:40:07.022Z,102412.87
2018-05-21T15:42:35.194Z,102395.34
2018-05-21T15:45:03.891Z,102402.60
2018-05-21T15:47:31.906Z,102401.88
2018-05-21T15:50:00.069Z,102397.31
2018-05-21T15:52:27.862Z,102379.31
2018-05-21T15:54:55.950Z,102390.34
2018-05-21T15:57:24.178Z,102388.75
2018-05-21T15:59:52.045Z,102387.85
2018-05-21T16:02:20.330Z,102378.30
2018-05-21T16:04:48.625Z,102377.56
2018-05-21T16:07:16.469Z,102379.73
2018-05-21T16:09:44.962Z,102383.61
2018-05-21T16:12:13.184Z,102378.83
2018-05-21T16:14:41.185Z,102374.33
2018-05-21T16:17:09.275Z,102366.31
2018-05-21T16:19:37.739Z,102366.75
2018-05-21T16:22:05.808Z,102369.50
2018-05-21T16:24:33.981Z,102367.45
2018-05-21T16:27:02.956Z,102364.32
2018-05-21T16:29:30.941Z,102357.88
2018-05-21T16:31:59.119Z,102360.00
2018-05-21T16:34:27.079Z,102357.77
2018-05-21T16:36:55.092Z,102338.56
2018-05-21T16:39:23.343Z,102343.54
2018-05-21T16:41:51.656Z,102335.39
2018-05-21T16:44:19.540Z,102340.43
2018-05-21T16:46:52.924Z,102342.22
2018-05-21T16:49:21.394Z,102336.14
2018-05-21T16:51:49.283Z,102338.76
2018-05-21T16:54:17.491Z,102332.09
2018-05-21T16:56:45.663Z,102328.30
2018-05-21T16:59:13.646Z,102335.83
2018-05-21T17:01:44.266Z,102325.60
2018-05-21T17:04:12.146Z,102325.62
2018-05-21T17:06:39.940Z,102319.52
2018-05-21T17:09:08.353Z,102315.29
2018-05-21T17:11:36.241Z,102316.81
2018-05-21T17:14:04.186Z,102318.11
2018-05-21T17:16:32.648Z,102317.66
2018-05-21T17:19:00.663Z,102321.55
2018-05-21T17:21:28.390Z,102312.69
2018-05-21T17:23:56.822Z,102314.78
2018-05-21T17:26:24.901Z,102312.22
2018-05-21T17:28:52.639Z,102313.56
2018-05-21T17:31:20.757Z,102307.66
2018-05-21T17:33:48.892Z,102302.16
2018-05-21T17:36:16.892Z,102307.13
2018-05-21T17:38:44.854Z,102300.69
2018-05-21T17:41:13.054Z,102298.89
2018-05-21T17:43:40.969Z,102293.03
2018-05-21T17:46:08.814Z,102293.66
2018-05-21T17:48:37.006Z,102269.63
2018-05-21T17:51:05.124Z,102290.73
2018-05-21T17:53:33.256Z,102272.23
2018-05-21T17:56:01.280Z,102286.14
2018-05-21T17:58:29.163Z,102278.95
2018-05-21T18:00:57.126Z,102280.02
2018-05-21T18:03:25.121Z,102282.37
2018-05-21T18:05:52.942Z,102277.13
2018-05-21T18:08:21.992Z,102277.57
2018-05-21T18:10:50.057Z,102289.47
2018-05-21T18:13:17.932Z,102271.77
2018-05-21T18:15:45.989Z,102271.25
2018-05-21T18:18:14.123Z,102270.53
2018-05-21T18:20:42.279Z,102266.89
2018-05-21T18:23:10.457Z,102261.88
2018-05-21T18:25:38.658Z,102253.58
2018-05-21T18:28:06.560Z,102261.11
2018-05-21T18:30:34.623Z,102255.86
2018-05-21T18:33:02.803Z,102260.75
2018-05-21T18:35:30.617Z,102251.38
2018-05-21T18:37:58.627Z,102256.39
2018-05-21T18:40:26.519Z,102259.97
2018-05-21T18:42:54.284Z,102265.81
2018-05-21T18:45:23.046Z,102269.05
2018-05-21T18:47:51.260Z,102267.77
2018-05-21T18:50:18.996Z,102266.88
2018-05-21T18:52:47.058Z,102267.05
2018-05-21T18:55:15.151Z,102269.77
2018-05-21T18:57:43.045Z,102263.13
2018-05-21T19:00:11.286Z,102263.59
2018-05-21T19:02:39.545Z,102260.57
2018-05-21T19:05:07.825Z,102257.50
2018-05-21T19:07:35.997Z,102255.81
2018-05-21T19:10:04.067Z,102258.14
2018-05-21T19:12:31.912Z,102253.64
2018-05-21T19:15:00.212Z,102258.16
2018-05-21T19:17:28.280Z,102248.06
2018-05-21T19:19:56.556Z,102251.91
2018-05-21T19:22:24.701Z,102250.59
2018-05-21T19:24:52.521Z,102261.83
2018-05-21T19:27:20.260Z,102257.41
2018-05-21T19:29:49.259Z,102253.95
2018-05-21T19:32:17.391Z,102263.36
2018-05-21T19:34:45.258Z,102265.16
2018-05-21T19:37:13.375Z,102254.96
2018-05-21T19:39:41.439Z,102260.36
2018-05-21T19:42:09.306Z,102264.45
2018-05-21T19:44:37.375Z,102259.56
2018-05-21T19:47:05.544Z,102262.23
2018-05-21T19:49:34.458Z,102258.27
2018-05-21T19:52:02.554Z,102265.80
2018-05-21T19:58:01.323Z,102257.08
2018-05-21T20:00:29.696Z,102257.97
2018-05-21T20:02:57.874Z,102257.97
2018-05-21T20:05:26.045Z,102257.13
2018-05-21T20:07:54.194Z,102255.75
2018-05-21T20:10:23.019Z,102255.75
2018-05-21T20:12:50.942Z,102257.08
2018-05-21T20:15:19.055Z,102246.34
2018-05-21T20:17:46.910Z,102246.84
2018-05-21T20:20:15.192Z,102244.66
2018-05-21T20:22:43.479Z,102237.98
2018-05-21T20:25:11.361Z,102240.75
2018-05-21T20:27:39.617Z,102242.58
2018-05-21T20:30:07.619Z,102244.00
2018-05-21T20:32:35.503Z,102238.30
2018-05-21T20:35:03.614Z,102237.88
2018-05-21T20:37:32.101Z,102232.17
2018-05-21T20:40:00.088Z,102238.41
2018-05-21T20:42:28.346Z,102235.29
2018-05-21T20:44:56.594Z,102238.00
2018-05-21T20:47:24.480Z,102230.88
2018-05-21T20:49:52.861Z,102231.28
2018-05-21T20:52:21.235Z,102226.03
2018-05-21T20:54:50.129Z,102228.84
2018-05-21T20:57:18.301Z,102225.00
2018-05-21T20:59:46.254Z,102224.17
2018-05-21T21:02:14.379Z,102217.53
2018-05-21T21:04:42.458Z,102215.80
2018-05-21T21:07:10.277Z,102208.67
2018-05-21T21:09:38.657Z,102213.52
2018-05-21T21:12:06.831Z,102206.81
2018-05-21T21:14:34.801Z,102203.66
2018-05-21T21:17:03.115Z,102187.45
2018-05-21T21:19:31.459Z,102206.55
2018-05-21T21:21:59.731Z,102199.11
2018-05-21T21:24:27.903Z,102183.23
2018-05-21T21:26:56.180Z,102191.64
2018-05-21T21:29:24.048Z,102194.47
2018-05-21T21:31:52.148Z,102188.73
2018-05-21T21:34:20.431Z,102187.44
2018-05-21T21:36:48.260Z,102192.01
2018-05-21T21:39:16.126Z,102184.53
2018-05-21T21:41:44.425Z,102185.50
2018-05-21T21:44:12.218Z,102178.42
2018-05-21T21:46:40.237Z,102182.06
2018-05-21T21:49:08.821Z,102127.45
2018-05-21T21:51:37.021Z,102175.91
2018-05-21T21:54:04.867Z,102171.92
2018-05-21T21:56:33.244Z,102173.77
2018-05-21T21:59:01.230Z,102169.41
2018-05-21T22:01:29.178Z,102164.92
2018-05-21T22:03:57.503Z,102161.77
2018-05-21T22:06:25.321Z,102165.37
2018-05-21T22:08:53.198Z,102167.17
2018-05-21T22:11:21.687Z,102168.03
2018-05-21T22:13:49.410Z,102174.25
2018-05-21T22:16:17.197Z,102165.88
2018-05-21T22:18:45.334Z,102168.11
2018-05-21T22:21:13.142Z,102167.25
2018-05-21T22:23:41.204Z,102160.59
2018-05-21T22:26:09.793Z,102155.30
2018-05-21T22:28:37.550Z,102153.19
2018-05-21T22:31:05.422Z,102153.14
2018-05-21T22:33:33.807Z,102143.89
2018-05-21T22:36:01.635Z,102140.81
2018-05-21T22:38:29.534Z,102151.89
2018-05-21T22:40:58.322Z,102147.92
2018-05-21T22:43:26.159Z,102145.30
2018-05-21T22:45:54.048Z,102146.26
2018-05-21T22:48:22.257Z,102141.44
2018-05-21T22:50:50.148Z,102143.70
2018-05-21T22:53:17.976Z,102139.25
2018-05-21T22:55:46.471Z,102102.64
2018-05-21T22:58:14.277Z,102138.37
2018-05-21T23:00:42.372Z,102137.55
2018-05-21T23:03:10.731Z,102132.66
2018-05-21T23:05:38.515Z,102139.33
2018-05-21T23:08:06.381Z,102125.63
2018-05-21T23:10:34.657Z,102128.33
2018-05-21T23:13:02.456Z,102129.69
2018-05-21T23:15:30.494Z,102128.87
2018-05-21T23:17:59.002Z,102129.80
2018-05-21T23:20:26.941Z,102132.08
2018-05-21T23:22:55.219Z,102135.22
2018-05-21T23:25:23.702Z,102130.84
2018-05-21T23:27:51.545Z,102121.61
2018-05-21T23:30:19.534Z,102117.62
2018-05-21T23:32:47.765Z,102128.75
2018-05-21T23:35:15.675Z,102123.89
2018-05-21T23:37:43.647Z,102124.81
2018-05-21T23:40:12.013Z,102124.40
2018-05-21T23:42:39.814Z,102118.19
2018-05-21T23:45:08.004Z,102120.88
2018-05-21T23:47:36.033Z,102119.61
2018-05-21T23:50:03.902Z,102107.72
2018-05-21T23:52:31.975Z,102112.13
2018-05-21T23:55:00.246Z,102113.48
2018-05-21T23:57:28.178Z,102115.34
2018-05-21T23:59:56.087Z,102114.42
